Time;durP1;ratioP1;P1;durP2;ratioP2;P2;SDS_P1;SDS_P2;PMS_P1;PMS_P2;Temp;Humidity;BMP_temperature;BMP_pressure;BME280_temperature;BME280_humidity;BME280_pressure;Samples;Min_cycle;Max_cycle;Signal;HPM_P1;HPM_P2
2022/05/03 00:02:14;;;;;;;18.20;10.85;;;;;;;9.84;74.09;100205.94;5103792;28;20012;-63
2022/05/03 00:04:49;;;;;;;22.08;12.20;;;;;;;9.74;74.21;100206.00;5103539;28;20106;-63
2022/05/03 00:07:27;;;;;;;17.45;10.75;;;;;;;9.61;73.99;100204.38;5103659;28;20085;-64
2022/05/03 00:10:06;;;;;;;23.08;11.45;;;;;;;9.45;74.22;100204.50;5103519;28;20023;-63
2022/05/03 00:12:31;;;;;;;21.15;12.43;;;;;;;9.35;74.35;100208.88;5102127;28;20024;-63
2022/05/03 00:15:00;;;;;;;26.10;12.00;;;;;;;9.28;74.48;100214.97;5103278;28;20067;-64
2022/05/03 00:17:26;;;;;;;17.58;12.05;;;;;;;9.17;74.81;100215.03;5103639;28;20049;-62
2022/05/03 00:19:53;;;;;;;24.17;12.57;;;;;;;9.10;75.08;100228.88;5103385;28;20039;-63
2022/05/03 00:22:19;;;;;;;22.65;12.68;;;;;;;9.10;75.26;100229.75;5103403;28;20066;-64
2022/05/03 00:24:45;;;;;;;27.23;13.80;;;;;;;9.10;75.49;100227.16;5103407;28;20085;-63
2022/05/03 00:27:12;;;;;;;24.25;12.73;;;;;;;9.13;75.59;100227.16;5103500;28;20028;-64
2022/05/03 00:29:37;;;;;;;25.95;14.38;;;;;;;9.09;75.39;100225.41;5103060;28;20039;-65
2022/05/03 00:32:03;;;;;;;27.20;13.82;;;;;;;9.07;75.30;100229.78;5103245;28;20031;-64
2022/05/03 00:34:31;;;;;;;27.10;14.98;;;;;;;9.01;74.97;100224.63;5103456;28;20024;-64
2022/05/03 00:36:56;;;;;;;27.83;15.07;;;;;;;8.94;75.26;100223.78;5103067;28;20027;-64
2022/05/03 00:39:21;;;;;;;30.73;15.38;;;;;;;8.87;75.38;100220.34;5103068;28;20035;-64
2022/05/03 00:42:01;;;;;;;27.17;15.50;;;;;;;8.81;75.26;100225.56;5103182;28;20024;-64
2022/05/03 00:47:27;;;;;;;33.85;16.02;;;;;;;8.66;75.63;100229.06;5102690;28;20058;-64
2022/05/03 00:50:06;;;;;;;31.77;18.00;;;;;;;8.61;75.62;100234.25;5102832;28;20097;-65
2022/05/03 00:52:47;;;;;;;30.17;17.92;;;;;;;8.55;75.70;100236.84;5102782;28;20046;-64
2022/05/03 00:55:34;;;;;;;29.08;17.90;;;;;;;8.50;75.80;100244.59;5103153;28;20024;-67
2022/05/03 00:58:18;;;;;;;28.33;16.98;;;;;;;8.44;75.76;100244.63;5102781;28;20035;-65
2022/05/03 01:00:55;;;;;;;31.70;15.98;;;;;;;8.40;76.07;100248.09;5102899;28;20024;-64
2022/05/03 01:03:43;;;;;;;36.88;18.50;;;;;;;8.36;76.36;100252.41;5102768;28;20024;-64
2022/05/03 01:06:14;;;;;;;38.70;19.85;;;;;;;8.36;76.72;100254.97;5103022;28;20475;-64
2022/05/03 01:08:49;;;;;;;38.40;20.40;;;;;;;8.36;77.03;100251.53;5102670;28;20057;-65
2022/05/03 01:11:34;;;;;;;33.72;18.58;;;;;;;8.33;77.06;100247.22;5102806;28;20039;-64
2022/05/03 01:14:21;;;;;;;31.45;18.23;;;;;;;8.32;77.37;100255.88;5106117;28;20085;-64
2022/05/03 01:16:58;;;;;;;34.60;18.80;;;;;;;8.26;77.40;100256.72;5106700;28;20542;-64
2022/05/03 01:19:26;;;;;;;32.92;18.38;;;;;;;8.34;77.79;100271.38;5106447;28;20028;-64
2022/05/03 01:22:31;;;;;;;31.40;19.15;;;;;;;8.34;77.80;100268.78;5105035;28;20087;-64
2022/05/03 01:25:13;;;;;;;30.05;19.20;;;;;;;8.33;77.73;100277.41;5106573;28;20032;-64
2022/05/03 01:28:05;;;;;;;32.53;18.77;;;;;;;8.34;77.80;100279.13;5106312;28;20028;-64
2022/05/03 01:30:31;;;;;;;31.02;18.70;;;;;;;8.34;77.97;100279.97;5106405;28;20312;-64
2022/05/03 01:33:06;;;;;;;35.45;18.70;;;;;;;8.36;77.86;100286.03;5106285;28;20039;-65
2022/05/03 01:35:38;;;;;;;34.75;17.90;;;;;;;8.38;78.02;100286.03;5106315;28;20088;-65
2022/05/03 01:38:15;;;;;;;28.52;15.93;;;;;;;8.40;78.16;100298.06;5106028;28;20031;-64
2022/05/03 01:40:45;;;;;;;27.75;15.63;;;;;;;8.39;78.15;100298.09;5106198;28;20028;-64
2022/05/03 01:43:39;;;;;;;29.88;15.20;;;;;;;8.37;78.39;100307.59;5106217;28;20599;-64
2022/05/03 01:46:18;;;;;;;26.00;14.82;;;;;;;8.33;78.60;100296.38;5106030;28;20029;-64
2022/05/03 01:51:47;;;;;;;23.17;12.27;;;;;;;8.34;78.49;100300.69;5106104;28;20116;-63
2022/05/03 01:54:31;;;;;;;19.93;12.30;;;;;;;8.35;78.44;100305.00;5105790;28;20074;-64
2022/05/03 01:57:04;;;;;;;23.58;10.05;;;;;;;8.33;78.08;100292.91;5105813;28;20103;-64
2022/05/03 01:59:49;;;;;;;13.23;8.05;;;;;;;8.30;77.76;100306.72;5105792;28;20051;-63
2022/05/03 02:02:29;;;;;;;9.23;6.35;;;;;;;8.27;77.19;100314.50;5105739;28;20023;-64
2022/05/03 02:05:07;;;;;;;10.82;5.80;;;;;;;8.26;75.87;100315.38;5105526;28;20024;-64
2022/05/03 02:07:53;;;;;;;9.70;5.05;;;;;;;8.21;74.39;100315.34;5105566;28;20137;-63
2022/05/03 02:10:39;;;;;;;6.95;3.80;;;;;;;8.14;73.41;100324.84;5105492;28;20016;-64
2022/05/03 02:13:29;;;;;;;6.00;2.63;;;;;;;8.10;70.88;100332.59;5105569;28;20028;-64
2022/05/03 02:16:07;;;;;;;7.32;3.42;;;;;;;8.11;68.97;100340.34;5105281;28;20084;-64
2022/05/03 02:18:56;;;;;;;5.32;2.40;;;;;;;8.07;65.87;100330.84;5105368;28;20016;-63
2022/05/03 02:21:32;;;;;;;2.17;1.40;;;;;;;8.00;64.57;100342.06;5105508;28;20102;-64
2022/05/03 02:24:09;;;;;;;5.78;2.88;;;;;;;7.95;63.93;100342.06;5104091;28;20123;-63
2022/05/03 02:27:01;;;;;;;4.45;1.98;;;;;;;7.96;63.06;100335.13;5105243;28;20046;-64
2022/05/03 02:29:33;;;;;;;4.60;1.88;;;;;;;7.97;61.60;100331.72;5105454;28;20020;-64
2022/05/03 02:32:05;;;;;;;4.35;2.38;;;;;;;7.93;60.95;100351.53;5105209;28;20028;-63
2022/05/03 02:34:42;;;;;;;;;;;;;;;7.90;60.70;100354.97;5105435;28;20027;-64
2022/05/03 02:37:18;;;;;;;5.00;1.80;;;;;;;7.81;59.75;100349.78;5104920;28;19946;-65
2022/05/03 02:39:50;;;;;;;5.93;1.90;;;;;;;7.81;59.27;100357.56;5104790;28;20042;-64
2022/05/03 02:42:16;;;;;;;;;;;;;;;7.80;57.07;100351.50;5105673;28;20048;-64
2022/05/03 02:44:43;;;;;;;2.75;1.55;;;;;;;7.81;56.68;100358.38;5105105;28;19915;-63
2022/05/03 02:47:17;;;;;;;3.13;1.52;;;;;;;7.78;56.39;100362.72;5104669;28;20492;-63
2022/05/03 02:50:02;;;;;;;4.68;1.50;;;;;;;7.77;55.87;100361.84;5104623;28;20125;-63
2022/05/03 02:52:42;;;;;;;4.20;1.48;;;;;;;7.70;55.81;100370.41;5104705;28;20016;-63
2022/05/03 02:55:16;;;;;;;2.85;0.95;;;;;;;7.73;54.93;100374.75;5104884;28;20466;-63
2022/05/03 02:57:57;;;;;;;2.13;1.38;;;;;;;7.66;54.31;100373.84;5104721;28;20028;-64
2022/05/03 03:03:36;;;;;;;2.67;1.15;;;;;;;7.56;53.31;100379.00;5104722;28;20085;-64
2022/05/03 03:06:02;;;;;;;1.67;0.80;;;;;;;7.51;53.00;100375.53;5104596;28;20024;-65
2022/05/03 03:08:35;;;;;;;3.72;1.10;;;;;;;7.41;53.15;100382.38;5104548;28;20204;-65
2022/05/03 03:11:07;;;;;;;2.55;1.20;;;;;;;7.42;52.80;100388.41;5104737;28;20060;-64
2022/05/03 03:14:08;;;;;;;3.47;1.02;;;;;;;7.37;52.66;100390.97;5104706;28;20028;-64
2022/05/03 03:16:35;;;;;;;2.53;1.08;;;;;;;7.31;52.65;100398.69;5104005;28;20285;-64
2022/05/03 03:19:37;;;;;;;1.60;0.80;;;;;;;7.26;52.79;100403.84;5104570;28;20016;-65
2022/05/03 03:22:06;;;;;;;;;;;;;;;7.19;52.48;100400.34;5104957;28;20498;-65
2022/05/03 03:24:32;;;;;;;1.90;1.20;;;;;;;7.10;52.55;100400.31;5104541;28;19970;-64
2022/05/03 03:27:02;;;;;;;1.15;0.85;;;;;;;7.06;52.12;100404.59;5104517;28;20035;-64
2022/05/03 03:29:30;;;;;;;1.08;0.60;;;;;;;7.06;51.80;100408.91;5104225;28;20016;-65
2022/05/03 03:31:58;;;;;;;3.40;0.50;;;;;;;7.02;51.83;100409.72;5104452;28;20024;-64
2022/05/03 03:34:25;;;;;;;3.78;0.80;;;;;;;7.11;51.33;100414.94;5104116;28;20024;-64
2022/05/03 03:36:53;;;;;;;1.00;0.60;;;;;;;7.14;51.18;100420.13;5103939;28;20020;-65
2022/05/03 03:39:18;;;;;;;1.55;0.80;;;;;;;7.13;50.91;100420.97;5103950;28;20024;-64
2022/05/03 03:41:47;;;;;;;2.75;0.80;;;;;;;7.27;50.19;100407.25;5104207;28;20016;-64
2022/05/03 03:44:13;;;;;;;1.70;0.75;;;;;;;7.41;49.96;100423.69;5104021;28;20057;-64
2022/05/03 03:46:38;;;;;;;2.40;0.65;;;;;;;7.46;49.86;100433.22;5104210;28;20016;-64
2022/05/03 03:49:04;;;;;;;1.60;0.80;;;;;;;7.50;50.10;100424.59;5103855;28;20050;-64
2022/05/03 03:51:30;;;;;;;2.45;0.55;;;;;;;7.71;49.95;100439.34;5103880;28;20439;-65
2022/05/03 03:53:56;;;;;;;5.60;0.98;;;;;;;7.79;49.91;100450.59;5103855;28;20059;-65
2022/05/03 03:56:22;;;;;;;2.05;0.73;;;;;;;7.87;49.22;100462.66;5104057;28;20024;-64
2022/05/03 03:58:47;;;;;;;1.48;0.45;;;;;;;7.94;49.17;100459.22;5103814;28;20185;-65
2022/05/03 04:01:13;;;;;;;3.00;0.70;;;;;;;8.04;48.76;100461.00;5103881;28;20438;-65
2022/05/03 04:03:39;;;;;;;0.73;0.50;;;;;;;8.17;48.74;100467.06;5103610;28;20317;-64
2022/05/03 04:06:05;;;;;;;2.03;0.60;;;;;;;8.35;48.40;100467.09;5103735;28;20026;-64
2022/05/03 04:08:31;;;;;;;0.45;0.45;;;;;;;8.43;47.82;100475.75;5103499;28;20114;-64
2022/05/03 04:10:56;;;;;;;1.50;0.60;;;;;;;8.52;46.87;100477.47;5103741;28;20016;-64
2022/05/03 04:13:22;;;;;;;1.25;0.60;;;;;;;8.65;46.52;100481.84;5103677;28;20364;-65
2022/05/03 04:15:50;;;;;;;1.33;0.60;;;;;;;8.75;46.61;100489.59;5103390;28;20480;-64
2022/05/03 04:18:15;;;;;;;2.40;0.60;;;;;;;8.93;46.17;100484.44;5103729;28;20027;-64
2022/05/03 04:20:41;;;;;;;0.80;0.40;;;;;;;9.07;45.47;100493.94;5103806;28;20021;-65
2022/05/03 04:23:06;;;;;;;0.57;0.40;;;;;;;9.26;44.01;100509.44;5103490;28;20118;-64
2022/05/03 04:25:32;;;;;;;0.70;0.50;;;;;;;9.25;43.64;100510.31;5103629;28;20083;-65
2022/05/03 04:27:58;;;;;;;1.02;0.60;;;;;;;9.33;43.80;100495.59;5103316;28;20082;-61
2022/05/03 04:30:23;;;;;;;0.63;0.45;;;;;;;9.48;43.30;100499.03;5103530;28;20020;-65
2022/05/03 04:32:48;;;;;;;0.82;0.40;;;;;;;9.54;43.05;100510.25;5103560;28;20031;-66
2022/05/03 04:35:14;;;;;;;1.38;0.40;;;;;;;9.51;42.86;100499.88;5103199;28;20063;-64
2022/05/03 04:37:39;;;;;;;1.50;0.57;;;;;;;9.69;42.01;100516.25;5103497;28;20039;-63
2022/05/03 04:40:05;;;;;;;3.20;0.60;;;;;;;9.83;41.97;100524.00;5103282;28;20028;-64
2022/05/03 04:42:30;;;;;;;2.03;0.60;;;;;;;9.92;41.61;100521.34;5103394;28;20024;-63
2022/05/03 04:44:56;;;;;;;0.50;0.40;;;;;;;9.99;40.90;100518.75;5103362;28;20472;-63
2022/05/03 04:47:21;;;;;;;2.85;0.60;;;;;;;10.01;40.76;100524.78;5103977;28;20049;-64
2022/05/03 04:49:48;;;;;;;1.45;0.60;;;;;;;10.07;40.65;100534.25;5107311;28;20048;-65
2022/05/03 04:52:13;;;;;;;1.77;0.60;;;;;;;10.06;39.86;100528.25;5107487;28;20112;-66
2022/05/03 04:54:38;;;;;;;3.22;0.60;;;;;;;10.07;40.39;100535.13;5107272;28;20031;-67
2022/05/03 04:57:06;;;;;;;2.95;0.50;;;;;;;10.04;40.02;100535.16;5107269;28;20059;-67
2022/05/03 04:59:31;;;;;;;1.58;0.70;;;;;;;10.13;39.54;100532.50;5106955;28;20511;-68
2022/05/03 05:01:57;;;;;;;0.55;0.40;;;;;;;10.22;39.27;100557.56;5107133;28;20045;-69
2022/05/03 05:04:22;;;;;;;4.00;0.77;;;;;;;10.03;39.01;100554.19;5106920;28;20035;-66
2022/05/03 05:06:48;;;;;;;1.08;0.47;;;;;;;10.09;39.50;100554.16;5107069;28;20016;-67
2022/05/03 05:09:13;;;;;;;0.70;0.40;;;;;;;10.23;39.18;100555.81;5106787;28;20024;-67
2022/05/03 05:11:38;;;;;;;2.28;0.73;;;;;;;10.48;38.92;100559.19;5106789;28;20356;-67
2022/05/03 05:14:04;;;;;;;1.77;0.63;;;;;;;10.73;37.94;100559.06;5106694;28;20049;-68
2022/05/03 05:16:29;;;;;;;0.98;0.77;;;;;;;10.70;37.60;100572.06;5106733;28;20023;-67
2022/05/03 05:18:54;;;;;;;2.63;0.47;;;;;;;10.68;37.51;100570.31;5106415;28;20026;-67
2022/05/03 05:21:20;;;;;;;1.30;0.50;;;;;;;10.77;37.21;100568.53;5106630;28;20024;-68
2022/05/03 05:23:45;;;;;;;4.85;0.55;;;;;;;10.85;37.41;100558.09;5106143;28;20034;-68
2022/05/03 05:26:11;;;;;;;0.50;0.40;;;;;;;10.88;37.07;100565.84;5106336;28;20020;-67
2022/05/03 05:28:36;;;;;;;1.88;0.60;;;;;;;10.79;36.81;100576.31;5106058;28;20042;-68
2022/05/03 05:31:02;;;;;;;1.92;0.70;;;;;;;10.96;35.71;100578.78;5106389;28;20031;-66
2022/05/03 05:33:27;;;;;;;4.15;0.60;;;;;;;10.87;35.84;100568.47;5106300;28;20129;-66
2022/05/03 05:35:53;;;;;;;0.88;0.30;;;;;;;11.10;36.94;100578.69;5106330;28;20294;-67
2022/05/03 05:38:19;;;;;;;3.15;0.90;;;;;;;11.29;35.30;100578.56;5106342;28;20023;-66
2022/05/03 05:40:46;;;;;;;1.13;0.50;;;;;;;11.31;34.84;100563.78;5106254;28;20051;-66
2022/05/03 05:43:13;;;;;;;0.95;0.55;;;;;;;11.11;34.32;100588.22;5106556;28;20028;-66
2022/05/03 05:45:38;;;;;;;4.78;2.30;;;;;;;10.93;34.67;100588.38;5106355;28;20028;-68
2022/05/03 05:48:05;;;;;;;2.00;0.50;;;;;;;10.82;35.25;100586.69;5106270;28;20039;-69
2022/05/03 05:50:30;;;;;;;2.70;0.93;;;;;;;10.98;33.75;100591.75;5105653;28;20051;-68
2022/05/03 05:55:42;;;;;;;4.22;0.57;;;;;;;10.67;33.90;100592.84;5105645;28;20043;-68
2022/05/03 05:58:08;;;;;;;1.50;0.50;;;;;;;10.78;34.23;100593.63;5105182;28;20045;-67
2022/05/03 06:00:33;;;;;;;2.72;0.70;;;;;;;10.97;33.58;100590.06;5105415;28;20032;-68
2022/05/03 06:02:59;;;;;;;4.80;0.60;;;;;;;11.27;33.87;100598.47;5105405;28;20024;-68
2022/05/03 06:05:25;;;;;;;2.25;0.50;;;;;;;11.50;32.52;100615.63;5105354;28;20244;-68
2022/05/03 06:07:50;;;;;;;5.18;1.17;;;;;;;11.51;32.94;100612.16;5103705;28;20088;-68
2022/05/03 06:10:16;;;;;;;3.33;0.73;;;;;;;11.61;32.55;100611.16;5105520;28;20035;-68
2022/05/03 06:12:41;;;;;;;0.57;0.43;;;;;;;11.84;32.84;100617.91;5105419;28;20054;-69
2022/05/03 06:15:07;;;;;;;1.38;0.50;;;;;;;12.05;32.21;100623.75;5104939;28;20020;-68
2022/05/03 06:17:32;;;;;;;2.40;0.65;;;;;;;12.46;30.42;100628.53;5104895;28;20032;-67
2022/05/03 06:19:57;;;;;;;2.03;0.70;;;;;;;12.14;29.52;100634.09;5104966;28;20038;-66
2022/05/03 06:22:23;;;;;;;2.92;0.82;;;;;;;11.77;30.94;100619.69;5104981;28;20028;-66
2022/05/03 06:24:48;;;;;;;4.18;0.70;;;;;;;11.74;31.09;100627.53;5104588;28;20075;-68
2022/05/03 06:27:15;;;;;;;1.40;0.50;;;;;;;12.02;30.53;100623.78;5104903;28;20057;-66
2022/05/03 06:29:41;;;;;;;2.58;0.85;;;;;;;12.19;30.88;100626.22;5104713;28;20046;-68
2022/05/03 06:32:08;;;;;;;3.22;0.65;;;;;;;12.50;29.20;100632.78;5104442;28;20035;-66
2022/05/03 06:34:33;;;;;;;2.25;0.70;;;;;;;12.56;27.29;100661.38;5104631;28;20043;-65
2022/05/03 06:36:58;;;;;;;2.20;0.60;;;;;;;12.22;27.44;100651.38;5104656;28;20024;-66
2022/05/03 06:39:24;;;;;;;1.02;0.50;;;;;;;11.98;28.29;100645.53;5104608;28;20046;-67
2022/05/03 06:41:49;;;;;;;1.00;0.60;;;;;;;12.10;28.18;100658.44;5104381;28;20490;-66
2022/05/03 06:44:14;;;;;;;3.03;0.60;;;;;;;12.03;28.50;100654.13;5104454;28;20185;-66
2022/05/03 06:46:39;;;;;;;2.65;0.80;;;;;;;11.98;28.54;100658.53;5104186;28;20337;-66
2022/05/03 06:49:05;;;;;;;2.20;0.70;;;;;;;12.08;28.27;100686.19;5104152;28;20056;-65
2022/05/03 06:51:30;;;;;;;3.10;0.82;;;;;;;12.13;27.50;100667.94;5104247;28;20028;-66
2022/05/03 06:53:56;;;;;;;3.42;0.60;;;;;;;11.72;27.54;100676.13;5104290;28;20020;-65
2022/05/03 06:56:21;;;;;;;3.63;0.80;;;;;;;11.39;27.90;100671.16;5104153;28;20027;-65
2022/05/03 06:58:46;;;;;;;3.45;0.85;;;;;;;11.30;28.64;100678.16;5104058;28;20020;-66
2022/05/03 07:01:14;;;;;;;2.97;0.65;;;;;;;11.36;28.68;100663.38;5104380;28;20028;-65
2022/05/03 07:03:40;;;;;;;3.17;0.57;;;;;;;11.67;28.55;100677.00;5104128;28;20047;-66
2022/05/03 07:06:06;;;;;;;5.75;0.80;;;;;;;11.59;28.72;100679.69;5104000;28;20024;-66
2022/05/03 07:08:33;;;;;;;3.25;0.60;;;;;;;11.85;28.60;100678.59;5103877;28;20026;-66
2022/05/03 07:10:59;;;;;;;4.20;0.60;;;;;;;11.93;28.15;100675.91;5103086;28;20051;-66
2022/05/03 07:13:25;;;;;;;1.80;0.63;;;;;;;12.10;27.54;100689.66;5104022;28;20489;-66
2022/05/03 07:15:56;;;;;;;3.92;0.80;;;;;;;12.04;27.63;100689.69;5103743;28;20020;-67
2022/05/03 07:23:51;;;;;;;3.50;0.60;;;;;;;12.55;27.66;100695.25;5103965;28;20135;-67
2022/05/03 07:26:17;;;;;;;1.98;0.70;;;;;;;12.88;27.46;100696.56;5103842;28;20400;-67
2022/05/03 07:28:42;;;;;;;5.05;0.80;;;;;;;13.29;27.61;100689.91;5103556;28;20037;-66
2022/05/03 07:31:10;;;;;;;1.52;0.70;;;;;;;13.84;26.58;100709.06;5103337;28;20486;-66
2022/05/03 07:33:35;;;;;;;3.70;0.80;;;;;;;13.83;25.85;100709.97;5103698;28;20032;-67
2022/05/03 07:36:01;;;;;;;1.63;0.90;;;;;;;13.34;26.08;100699.38;5103521;28;20036;-67
2022/05/03 07:38:28;;;;;;;14.95;2.17;;;;;;;13.11;26.44;100713.63;5101734;28;20023;-67
2022/05/03 07:40:54;;;;;;;28.00;2.63;;;;;;;13.13;26.97;100711.84;5103243;28;20047;-67
2022/05/03 07:43:19;;;;;;;4.85;0.70;;;;;;;13.58;27.12;100718.16;5103280;28;20031;-67
2022/05/03 07:45:44;;;;;;;2.05;0.70;;;;;;;13.72;26.13;100727.53;5103292;28;20328;-66
2022/05/03 07:48:10;;;;;;;0.90;0.60;;;;;;;13.76;25.40;100744.84;5103042;28;20032;-65
2022/05/03 07:50:35;;;;;;;8.95;1.25;;;;;;;13.48;26.37;100724.41;5102959;28;20047;-67
2022/05/03 07:53:00;;;;;;;8.77;1.05;;;;;;;13.53;25.97;100726.97;5102896;28;20024;-66
2022/05/03 07:55:26;;;;;;;1.23;0.60;;;;;;;13.48;25.47;100721.78;5103003;28;20027;-66
2022/05/03 07:57:51;;;;;;;2.63;0.60;;;;;;;13.19;26.55;100723.06;5102890;28;20034;-67
2022/05/03 08:00:17;;;;;;;1.42;0.40;;;;;;;13.33;25.87;100723.75;5102891;28;20031;-65
2022/05/03 08:02:42;;;;;;;3.08;0.70;;;;;;;13.35;26.17;100735.03;5103145;28;20034;-67
2022/05/03 08:05:10;;;;;;;1.35;0.55;;;;;;;13.44;25.94;100725.31;5103082;28;20024;-68
2022/05/03 08:07:35;;;;;;;1.73;1.10;;;;;;;13.47;26.26;100738.31;5103117;28;20034;-67
2022/05/03 08:10:02;;;;;;;2.13;0.70;;;;;;;13.54;25.94;100734.78;5102869;28;20015;-67
2022/05/03 08:12:28;;;;;;;3.05;1.20;;;;;;;13.66;25.56;100736.31;5102743;28;20551;-67
2022/05/03 08:14:54;;;;;;;0.88;0.40;;;;;;;13.67;25.34;100745.00;5102869;28;20028;-67
2022/05/03 08:17:20;;;;;;;1.52;0.60;;;;;;;13.41;25.56;100743.63;5103077;28;20022;-67
2022/05/03 08:19:45;;;;;;;2.70;0.60;;;;;;;13.60;25.35;100744.22;5102756;28;20048;-65
2022/05/03 08:22:11;;;;;;;0.80;0.32;;;;;;;13.90;24.99;100751.59;5101989;28;20488;-67
2022/05/03 08:24:37;;;;;;;4.45;0.90;;;;;;;14.09;24.64;100747.78;5102704;28;20088;-65
2022/05/03 08:27:03;;;;;;;3.25;0.52;;;;;;;14.19;24.40;100758.91;5102754;28;20050;-66
2022/05/03 08:29:31;;;;;;;4.45;0.77;;;;;;;14.06;24.47;100746.97;5102692;28;20020;-66
2022/05/03 08:31:58;;;;;;;1.45;0.60;;;;;;;14.22;24.58;100758.00;5102324;28;20035;-65
2022/05/03 08:34:23;;;;;;;1.60;0.60;;;;;;;14.44;24.28;100761.06;5102411;28;20055;-65
2022/05/03 08:42:21;;;;;;;2.00;0.60;;;;;;;14.38;24.62;100750.75;5039703;28;20088;-68
2022/05/03 08:44:46;;;;;;;2.72;0.95;;;;;;;14.63;23.92;100750.28;5039519;28;20033;-69
2022/05/03 08:47:14;;;;;;;5.35;0.93;;;;;;;15.09;24.38;100751.09;5039519;28;20224;-67
2022/05/03 08:50:08;;;;;;;3.75;0.77;;;;;;;15.62;23.23;100754.28;5039325;28;20052;-67
2022/05/03 08:52:40;;;;;;;1.65;0.70;;;;;;;15.35;22.27;100757.50;5039483;28;20040;-67
2022/05/03 08:55:06;;;;;;;1.73;0.60;;;;;;;14.96;22.40;100762.72;5039339;28;20079;-64
2022/05/03 08:57:32;;;;;;;1.05;0.50;;;;;;;14.78;22.91;100770.00;5039425;28;20128;-65
2022/05/03 08:59:58;;;;;;;1.67;0.40;;;;;;;14.85;23.08;100768.16;5039148;28;20026;-66
2022/05/03 09:02:23;;;;;;;4.00;0.70;;;;;;;14.95;23.04;100758.38;5039450;28;20032;-66
2022/05/03 09:04:49;;;;;;;2.35;0.60;;;;;;;15.00;22.86;100766.97;5039107;28;20037;-66
2022/05/03 09:07:19;;;;;;;1.80;0.60;;;;;;;14.99;22.55;100760.91;5039382;28;20093;-65
2022/05/03 09:09:45;;;;;;;1.80;0.57;;;;;;;15.07;22.79;100776.41;5039143;28;20029;-64
2022/05/03 09:12:30;;;;;;;1.75;0.30;;;;;;;15.09;22.72;100772.03;5039436;28;20025;-66
2022/05/03 09:15:00;;;;;;;1.15;0.63;;;;;;;15.32;22.08;100773.25;5039469;28;20049;-65
2022/05/03 09:17:45;;;;;;;1.77;0.57;;;;;;;15.42;22.75;100767.81;5091136;28;20044;-66
2022/05/03 09:26:17;;;;;;;3.40;0.60;;;;;;;16.97;21.70;100759.47;5102330;28;20077;-66
2022/05/03 09:28:53;;;;;;;1.45;0.50;;;;;;;17.41;20.88;100780.03;5102291;28;20031;-66
2022/05/03 09:31:35;;;;;;;3.33;0.65;;;;;;;17.16;20.40;100774.69;5102357;28;20024;-67
2022/05/03 09:34:19;;;;;;;3.47;0.90;;;;;;;16.73;20.79;100770.66;5103971;28;20039;-65
2022/05/03 09:36:50;;;;;;;2.35;0.50;;;;;;;16.88;21.25;100773.72;5106182;28;20112;-66
2022/05/03 09:39:30;;;;;;;2.50;0.67;;;;;;;16.89;21.25;100770.19;5105979;28;20027;-65
2022/05/03 09:42:25;;;;;;;4.57;0.73;;;;;;;16.90;20.87;100765.81;5106299;28;20252;-65
2022/05/03 09:44:51;;;;;;;1.02;0.63;;;;;;;17.25;21.18;100771.81;5105419;28;20036;-66
2022/05/03 09:47:18;;;;;;;3.03;0.57;;;;;;;17.74;21.22;100763.28;5105799;28;20077;-65
2022/05/03 09:49:44;;;;;;;2.88;0.63;;;;;;;18.82;20.04;100762.19;5105625;28;20071;-64
2022/05/03 09:52:30;;;;;;;6.88;1.13;;;;;;;19.02;19.50;100773.75;5105720;28;20071;-67
2022/05/03 09:55:05;;;;;;;1.13;0.60;;;;;;;18.56;19.18;100769.28;5105627;28;20028;-65
2022/05/03 09:57:32;;;;;;;1.92;0.50;;;;;;;18.12;19.24;100764.69;5105666;28;20107;-65
2022/05/03 09:59:59;;;;;;;1.05;0.40;;;;;;;18.13;19.58;100764.63;5105377;28;20031;-65
2022/05/03 10:02:26;;;;;;;1.85;0.60;;;;;;;18.21;19.30;100773.09;5105656;28;20039;-65
2022/05/03 10:04:56;;;;;;;1.58;0.57;;;;;;;18.27;19.59;100769.44;5105394;28;20020;-65
2022/05/03 10:07:22;;;;;;;1.67;0.50;;;;;;;18.26;19.12;100769.47;5105587;28;20095;-66
2022/05/03 10:09:48;;;;;;;3.53;0.50;;;;;;;18.05;19.59;100772.75;5105277;28;20028;-64
2022/05/03 10:12:14;;;;;;;2.72;0.50;;;;;;;18.32;19.60;100759.59;5105133;28;20483;-65
2022/05/03 10:14:44;;;;;;;3.72;0.52;;;;;;;18.36;18.40;100773.47;5105277;28;20039;-66
2022/05/03 10:22:48;;;;;;;2.05;0.50;;;;;;;18.15;19.71;100768.06;5105678;28;20089;-72
2022/05/03 10:25:15;;;;;;;4.70;1.10;;;;;;;18.74;18.71;100774.78;5105016;28;20028;-67
2022/05/03 10:27:54;;;;;;;2.38;0.60;;;;;;;18.76;18.69;100763.28;5105062;28;20023;-66
2022/05/03 10:30:22;;;;;;;1.65;0.57;;;;;;;19.04;18.40;100756.97;5104954;28;20024;-65
2022/05/03 10:33:19;;;;;;;1.80;0.63;;;;;;;19.04;17.93;100759.59;5104952;28;20052;-67
2022/05/03 10:35:48;;;;;;;1.10;0.50;;;;;;;18.92;18.21;100767.97;5104694;28;20058;-70
2022/05/03 10:38:13;;;;;;;1.25;0.50;;;;;;;18.83;18.51;100759.50;5103806;28;20543;-68
2022/05/03 10:40:43;;;;;;;0.95;0.50;;;;;;;19.17;18.57;100761.81;5105773;28;20024;-68
2022/05/03 10:43:11;;;;;;;1.27;0.47;;;;;;;19.01;17.17;100770.25;5105254;28;20043;-68
2022/05/03 10:45:52;;;;;;;1.98;0.60;;;;;;;19.01;17.29;100762.34;5103699;28;20047;-69
2022/05/03 10:48:25;;;;;;;1.17;0.80;;;;;;;18.79;17.17;100763.19;5104858;28;20102;-69
2022/05/03 10:50:52;;;;;;;5.50;0.80;;;;;;;18.77;17.53;100761.53;5104633;28;20051;-69
2022/05/03 10:53:19;;;;;;;3.08;0.57;;;;;;;18.78;17.24;100764.09;5104377;28;20024;-67
2022/05/03 10:56:04;;;;;;;1.50;0.50;;;;;;;18.62;17.47;100770.84;5104501;28;20016;-69
2022/05/03 10:58:32;;;;;;;0.57;0.30;;;;;;;18.26;17.57;100765.06;5104482;28;20028;-68
2022/05/03 11:01:14;;;;;;;3.08;0.50;;;;;;;17.77;18.10;100763.19;5104562;28;20425;-67
2022/05/03 11:03:48;;;;;;;0.98;0.47;;;;;;;17.15;18.63;100757.25;5104349;28;20104;-69
2022/05/03 11:06:17;;;;;;;1.52;0.50;;;;;;;16.52;18.66;100759.00;5104408;28;20031;-69
2022/05/03 11:11:35;;;;;;;3.90;0.60;;;;;;;15.49;19.24;100751.94;5104138;28;20028;-68
2022/05/03 11:14:01;;;;;;;1.67;0.60;;;;;;;15.17;19.20;100757.91;5104339;28;20236;-68
2022/05/03 11:16:27;;;;;;;1.52;0.40;;;;;;;14.89;18.96;100753.28;5103777;28;20499;-69
2022/05/03 11:18:55;;;;;;;2.15;0.40;;;;;;;14.53;18.94;100752.22;5103842;28;20075;-69
2022/05/03 11:21:21;;;;;;;0.60;0.43;;;;;;;14.22;18.96;100758.00;5103901;28;20081;-69
2022/05/03 11:23:51;;;;;;;1.45;0.35;;;;;;;13.87;19.44;100753.38;5104052;28;20103;-69
2022/05/03 11:26:19;;;;;;;1.38;0.50;;;;;;;13.65;19.59;100757.19;5103903;28;20095;-69
2022/05/03 11:28:47;;;;;;;1.00;0.60;;;;;;;13.56;19.81;100753.84;5103659;28;20024;-68
2022/05/03 11:31:19;;;;;;;2.65;0.63;;;;;;;13.49;19.90;100752.19;5103795;28;20012;-68
2022/05/03 11:34:11;;;;;;;0.75;0.50;;;;;;;13.36;20.14;100761.94;5103616;28;20040;-69
2022/05/03 11:36:38;;;;;;;1.85;0.47;;;;;;;13.29;20.19;100755.94;5096180;22;20048;-63
2022/05/03 11:39:03;;;;;;;0.80;0.40;;;;;;;13.29;20.40;100757.72;5082834;28;20012;-63
2022/05/03 11:41:29;;;;;;;2.35;0.60;;;;;;;13.31;20.41;100759.41;5082968;28;20032;-62
2022/05/03 11:43:56;;;;;;;1.63;0.43;;;;;;;13.41;20.16;100751.44;5083048;28;20682;-63
2022/05/03 11:46:23;;;;;;;1.60;0.40;;;;;;;13.43;19.70;100750.56;5083286;28;20043;-63
2022/05/03 11:49:01;;;;;;;0.77;0.55;;;;;;;13.31;19.77;100767.22;5083105;28;20078;-63
2022/05/03 11:57:12;;;;;;;0.68;0.40;;;;;;;13.16;20.32;100757.88;5082480;28;20038;-62
2022/05/03 11:59:41;;;;;;;4.88;0.80;;;;;;;13.23;20.71;100756.03;5082934;28;20021;-63
2022/05/03 12:02:34;;;;;;;1.20;0.70;;;;;;;13.19;20.44;100739.59;5082566;28;20021;-64
2022/05/03 12:05:03;;;;;;;1.15;0.40;;;;;;;13.21;19.94;100755.22;5074159;28;20024;-63
2022/05/03 12:07:29;;;;;;;0.65;0.50;;;;;;;13.10;20.06;100751.00;5082577;28;20052;-63
2022/05/03 12:09:56;;;;;;;0.75;0.50;;;;;;;13.01;19.92;100756.31;5082443;28;20031;-63
2022/05/03 12:12:44;;;;;;;1.05;0.50;;;;;;;12.95;20.07;100757.28;5064219;28;20017;-63
2022/05/03 12:15:20;;;;;;;1.27;0.57;;;;;;;12.91;19.96;100755.56;5082499;28;20035;-63
2022/05/03 12:17:51;;;;;;;1.83;0.82;;;;;;;12.90;20.22;100756.47;5082488;28;20024;-63
2022/05/03 12:20:16;;;;;;;3.15;0.68;;;;;;;12.97;20.88;100755.50;5082476;28;20076;-63
2022/05/03 12:22:43;;;;;;;1.95;0.50;;;;;;;13.17;21.09;100763.94;5082437;28;20043;-63
2022/05/03 12:25:09;;;;;;;3.45;0.70;;;;;;;13.32;21.15;100745.47;5082278;28;20028;-63